Time;durP1;ratioP1;P1;durP2;ratioP2;P2;SDS_P1;SDS_P2;PMS_P1;PMS_P2;Temp;Humidity;BMP_temperature;BMP_pressure;BME280_temperature;BME280_humidity;BME280_pressure;Samples;Min_cycle;Max_cycle;Signal;HPM_P1;HPM_P2
2022/06/08 00:00:58;;;;;;;2.08;1.55;;;;;;;;;;5011161;28;19918;-57
2022/06/08 00:03:27;;;;;;;2.22;1.63;;;;;;;;;;5010561;28;20042;-58
2022/06/08 00:05:53;;;;;;;2.00;1.27;;;;;;;;;;5010915;28;20048;-57
2022/06/08 00:08:19;;;;;;;;;;;;;;;;;;4992634;28;20042;-58
2022/06/08 00:10:45;;;;;;;2.00;1.48;;;;;;;;;;4990075;28;19940;-58
2022/06/08 00:13:12;;;;;;;1.23;1.00;;;;;;;;;;4992002;28;20046;-57
2022/06/08 00:15:39;;;;;;;0.90;0.90;;;;;;;;;;5005346;28;20045;-58
2022/06/08 00:18:06;;;;;;;1.65;1.30;;;;;;;;;;4993836;28;20045;-58
2022/06/08 00:20:32;;;;;;;1.80;1.27;;;;;;;;;;5003952;28;20546;-58
2022/06/08 00:22:58;;;;;;;2.72;1.35;;;;;;;;;;4974681;28;20495;-58
2022/06/08 00:25:25;;;;;;;1.85;1.42;;;;;;;;;;4989722;28;20042;-57
2022/06/08 00:27:51;;;;;;;1.55;1.20;;;;;;;;;;4991886;28;20048;-58
2022/06/08 00:30:17;;;;;;;1.95;1.33;;;;;;;;;;5010477;28;20049;-58
2022/06/08 00:32:43;;;;;;;1.90;1.17;;;;;;;;;;4993403;28;20045;-58
2022/06/08 00:35:09;;;;;;;;;;;;;;;;;;5011429;28;20049;-58
2022/06/08 00:37:35;;;;;;;3.75;1.50;;;;;;;;;;5010503;28;19917;-58
2022/06/08 00:40:02;;;;;;;2.88;1.17;;;;;;;;;;5010158;28;20052;-58
2022/06/08 00:42:29;;;;;;;2.78;1.52;;;;;;;;;;5009043;28;20046;-58
2022/06/08 00:44:57;;;;;;;1.55;1.15;;;;;;;;;;5011097;28;20057;-58
2022/06/08 00:47:26;;;;;;;1.15;1.00;;;;;;;;;;5010467;28;20045;-58
2022/06/08 00:49:57;;;;;;;1.92;1.17;;;;;;;;;;5011049;28;20065;-58
2022/06/08 00:52:25;;;;;;;2.03;1.35;;;;;;;;;;4993962;28;20050;-58
2022/06/08 00:54:53;;;;;;;1.73;1.15;;;;;;;;;;4990805;28;20106;-57
2022/06/08 00:57:36;;;;;;;1.92;1.27;;;;;;;;;;4989976;28;20073;-58
2022/06/08 01:00:13;;;;;;;1.55;1.27;;;;;;;;;;5003151;28;20148;-58
2022/06/08 01:02:39;;;;;;;2.90;1.50;;;;;;;;;;5005867;28;20046;-58
2022/06/08 01:05:21;;;;;;;1.98;1.20;;;;;;;;;;4992042;28;20125;-58
2022/06/08 01:07:48;;;;;;;2.17;1.20;;;;;;;;;;4990880;28;20042;-57
2022/06/08 01:10:16;;;;;;;1.73;1.40;;;;;;;;;;4989808;28;20050;-58
2022/06/08 01:12:42;;;;;;;1.88;1.13;;;;;;;;;;4990326;28;20043;-58
2022/06/08 01:15:11;;;;;;;2.72;1.10;;;;;;;;;;4991509;28;20053;-58
2022/06/08 01:17:37;;;;;;;1.38;1.25;;;;;;;;;;4994554;28;20081;-57
2022/06/08 01:20:03;;;;;;;;;;;;;;;;;;4995430;28;20049;-58
2022/06/08 01:22:29;;;;;;;2.10;1.42;;;;;;;;;;4998628;28;19917;-58
2022/06/08 01:24:55;;;;;;;2.33;1.30;;;;;;;;;;4977061;28;20472;-58
2022/06/08 01:27:37;;;;;;;1.80;1.20;;;;;;;;;;5003970;28;20057;-58
2022/06/08 01:30:03;;;;;;;1.38;1.17;;;;;;;;;;4998640;28;20090;-57
2022/06/08 01:32:29;;;;;;;;;;;;;;;;;;4994860;28;20096;-58
2022/06/08 01:35:03;;;;;;;2.08;1.45;;;;;;;;;;4994763;28;19974;-57
2022/06/08 01:37:36;;;;;;;2.58;1.05;;;;;;;;;;4994183;28;20039;-58
2022/06/08 01:40:21;;;;;;;2.47;1.40;;;;;;;;;;4993905;28;20057;-58
2022/06/08 01:43:05;;;;;;;1.30;1.20;;;;;;;;;;4994114;28;20052;-57
2022/06/08 01:45:51;;;;;;;1.95;1.30;;;;;;;;;;4997393;28;20430;-58
2022/06/08 01:48:29;;;;;;;2.33;1.50;;;;;;;;;;5014305;28;20488;-58
2022/06/08 01:51:14;;;;;;;2.05;1.42;;;;;;;;;;5013580;28;20515;-58
2022/06/08 01:53:40;;;;;;;1.60;1.20;;;;;;;;;;4993953;28;20595;-58
2022/06/08 01:56:06;;;;;;;;;;;;;;;;;;4993312;28;20129;-58
2022/06/08 01:58:40;;;;;;;2.92;1.20;;;;;;;;;;4993770;28;19988;-58
2022/06/08 02:01:16;;;;;;;1.90;1.15;;;;;;;;;;4994403;28;20189;-58
2022/06/08 02:03:54;;;;;;;2.35;1.20;;;;;;;;;;4993766;28;20803;-58
2022/06/08 02:06:46;;;;;;;2.15;1.30;;;;;;;;;;4993922;28;20788;-58
2022/06/08 02:09:39;;;;;;;2.92;1.30;;;;;;;;;;4988891;28;20050;-58
2022/06/08 02:12:09;;;;;;;1.38;1.10;;;;;;;;;;4955725;28;20054;-58
2022/06/08 02:14:37;;;;;;;1.70;1.27;;;;;;;;;;4993661;28;20066;-58
2022/06/08 02:17:11;;;;;;;2.00;1.40;;;;;;;;;;4994051;28;20047;-57
2022/06/08 02:19:44;;;;;;;3.63;1.40;;;;;;;;;;4993430;28;20104;-58
2022/06/08 02:22:19;;;;;;;1.75;1.48;;;;;;;;;;5003115;28;20038;-57
2022/06/08 02:25:11;;;;;;;1.98;1.50;;;;;;;;;;5003091;28;20073;-58
2022/06/08 02:27:45;;;;;;;3.47;1.63;;;;;;;;;;4995386;28;20154;-57
2022/06/08 02:30:13;;;;;;;2.20;1.50;;;;;;;;;;5013122;28;20458;-58
2022/06/08 02:35:42;;;;;;;2.03;1.10;;;;;;;;;;4968324;28;20049;-58
2022/06/08 02:38:13;;;;;;;2.58;1.48;;;;;;;;;;5013315;28;20128;-58
2022/06/08 02:40:42;;;;;;;2.70;1.25;;;;;;;;;;5010180;28;20086;-57
2022/06/08 02:43:31;;;;;;;4.53;1.77;;;;;;;;;;5013224;28;20096;-57
2022/06/08 02:46:04;;;;;;;2.75;1.35;;;;;;;;;;5005353;28;20082;-58
2022/06/08 02:48:30;;;;;;;2.40;1.75;;;;;;;;;;4996713;28;20084;-58
2022/06/08 02:50:58;;;;;;;1.92;1.25;;;;;;;;;;5012729;28;20133;-57
2022/06/08 02:53:44;;;;;;;1.83;1.30;;;;;;;;;;5012802;28;20523;-58
2022/06/08 02:56:16;;;;;;;2.35;1.42;;;;;;;;;;4994107;28;20054;-58
2022/06/08 02:58:47;;;;;;;2.30;1.27;;;;;;;;;;5010998;28;20042;-58
2022/06/08 03:01:34;;;;;;;2.60;1.42;;;;;;;;;;5012463;28;20387;-58
2022/06/08 03:04:04;;;;;;;1.90;1.40;;;;;;;;;;4993636;28;20059;-58
2022/06/08 03:06:34;;;;;;;2.08;1.38;;;;;;;;;;5011920;28;20053;-58
2022/06/08 03:09:02;;;;;;;1.90;1.50;;;;;;;;;;5011526;28;20105;-58
2022/06/08 03:11:33;;;;;;;3.05;1.60;;;;;;;;;;4994185;28;20052;-58
2022/06/08 03:14:02;;;;;;;1.33;1.20;;;;;;;;;;5012541;28;20052;-58
2022/06/08 03:16:53;;;;;;;2.38;1.48;;;;;;;;;;5012574;28;20117;-58
2022/06/08 03:19:20;;;;;;;1.95;1.40;;;;;;;;;;5001490;28;20057;-58
2022/06/08 03:21:46;;;;;;;2.35;1.38;;;;;;;;;;5010327;28;20046;-58
2022/06/08 03:24:13;;;;;;;1.48;1.30;;;;;;;;;;4993747;28;20810;-58
2022/06/08 03:26:44;;;;;;;2.40;1.40;;;;;;;;;;4993960;28;20050;-58
2022/06/08 03:29:10;;;;;;;1.80;1.25;;;;;;;;;;4992550;28;20054;-58
2022/06/08 03:31:36;;;;;;;2.80;1.75;;;;;;;;;;4991906;28;20495;-57
2022/06/08 03:34:02;;;;;;;;;;;;;;;;;;5001782;28;20046;-58
2022/06/08 03:36:28;;;;;;;2.45;1.35;;;;;;;;;;5011914;28;20378;-57
2022/06/08 03:38:54;;;;;;;2.78;1.60;;;;;;;;;;5010765;28;20383;-58
2022/06/08 03:41:21;;;;;;;2.42;1.50;;;;;;;;;;5011133;28;20050;-58
2022/06/08 03:43:46;;;;;;;;;;;;;;;;;;5011863;28;20045;-58
2022/06/08 03:46:13;;;;;;;2.25;1.30;;;;;;;;;;5012059;28;19951;-58
2022/06/08 03:48:39;;;;;;;2.28;1.23;;;;;;;;;;5010586;28;20036;-58
2022/06/08 03:51:06;;;;;;;3.03;1.65;;;;;;;;;;5011365;28;20046;-58
2022/06/08 03:53:34;;;;;;;2.00;1.33;;;;;;;;;;4992056;28;20054;-58
2022/06/08 03:56:02;;;;;;;1.80;1.20;;;;;;;;;;4990662;28;20129;-58
2022/06/08 03:58:28;;;;;;;2.05;1.17;;;;;;;;;;5006819;28;20077;-58
2022/06/08 04:00:54;;;;;;;1.50;1.30;;;;;;;;;;5011186;28;20620;-57
2022/06/08 04:03:21;;;;;;;2.15;1.30;;;;;;;;;;5011525;28;20114;-58
2022/06/08 04:05:47;;;;;;;2.20;1.58;;;;;;;;;;5010813;28;20430;-58
2022/06/08 04:08:13;;;;;;;2.00;1.35;;;;;;;;;;5011682;28;20081;-57
2022/06/08 04:10:39;;;;;;;;;;;;;;;;;;5009632;28;20037;-58
2022/06/08 04:13:05;;;;;;;2.85;1.60;;;;;;;;;;5010890;28;20406;-58
2022/06/08 04:15:44;;;;;;;1.88;1.23;;;;;;;;;;5011378;28;20487;-58
2022/06/08 04:18:15;;;;;;;2.15;1.42;;;;;;;;;;5007238;28;20077;-58
2022/06/08 04:20:42;;;;;;;3.45;1.45;;;;;;;;;;4990824;28;20046;-58
2022/06/08 04:23:08;;;;;;;1.42;1.17;;;;;;;;;;4991890;28;20044;-57
2022/06/08 04:25:35;;;;;;;2.05;1.42;;;;;;;;;;4989363;28;20534;-58
2022/06/08 04:28:01;;;;;;;2.60;1.58;;;;;;;;;;4991671;28;20622;-58
2022/06/08 04:30:27;;;;;;;1.38;1.20;;;;;;;;;;4991510;28;20060;-57
2022/06/08 04:32:53;;;;;;;;;;;;;;;;;;4993730;28;20049;-58
2022/06/08 04:35:19;;;;;;;2.03;1.40;;;;;;;;;;4993219;28;19921;-58
2022/06/08 04:37:45;;;;;;;1.20;1.10;;;;;;;;;;4997941;28;20038;-58
2022/06/08 04:40:11;;;;;;;;;;;;;;;;;;5010257;28;20046;-57
2022/06/08 04:42:38;;;;;;;3.13;1.65;;;;;;;;;;5010323;28;19979;-60
2022/06/08 04:45:05;;;;;;;3.45;1.73;;;;;;;;;;5003249;28;20038;-58
2022/06/08 04:47:32;;;;;;;1.52;1.17;;;;;;;;;;4991503;28;20078;-57
2022/06/08 04:49:58;;;;;;;2.15;1.40;;;;;;;;;;4988960;28;20886;-58
2022/06/08 04:52:24;;;;;;;;;;;;;;;;;;4974690;28;20050;-58
2022/06/08 04:54:50;;;;;;;1.70;1.27;;;;;;;;;;5000605;28;19922;-58
2022/06/08 04:57:16;;;;;;;2.03;1.30;;;;;;;;;;4989305;28;20054;-58
2022/06/08 04:59:42;;;;;;;2.25;1.63;;;;;;;;;;4990747;28;20039;-58
2022/06/08 05:02:09;;;;;;;2.17;1.42;;;;;;;;;;4990549;28;20360;-58
2022/06/08 05:04:35;;;;;;;3.25;1.60;;;;;;;;;;5010692;28;20085;-58
2022/06/08 05:07:01;;;;;;;1.67;1.38;;;;;;;;;;4992528;28;20050;-58
2022/06/08 05:09:27;;;;;;;;;;;;;;;;;;4990865;28;20056;-58
2022/06/08 05:11:53;;;;;;;2.38;1.40;;;;;;;;;;4989374;28;19917;-58
2022/06/08 05:14:19;;;;;;;1.88;1.30;;;;;;;;;;4991119;28;20042;-58
2022/06/08 05:16:45;;;;;;;;;;;;;;;;;;4973967;28;20423;-58
2022/06/08 05:19:11;;;;;;;1.92;1.42;;;;;;;;;;5002672;28;19924;-58
2022/06/08 05:21:37;;;;;;;2.45;1.50;;;;;;;;;;5002958;28;20053;-57
2022/06/08 05:24:04;;;;;;;2.75;1.38;;;;;;;;;;5004777;28;20038;-58
2022/06/08 05:26:30;;;;;;;2.92;1.20;;;;;;;;;;5009604;28;20061;-58
2022/06/08 05:28:56;;;;;;;;;;;;;;;;;;5010433;28;20058;-58
2022/06/08 05:31:22;;;;;;;3.88;1.17;;;;;;;;;;5010777;28;19921;-58
2022/06/08 05:33:48;;;;;;;;;;;;;;;;;;5003554;28;20133;-58
2022/06/08 05:36:16;;;;;;;1.58;1.23;;;;;;;;;;4990953;28;19969;-58
2022/06/08 05:38:42;;;;;;;2.25;1.40;;;;;;;;;;4990505;28;20480;-58
2022/06/08 05:41:08;;;;;;;1.90;1.38;;;;;;;;;;4989307;28;20078;-58
2022/06/08 05:43:35;;;;;;;1.90;1.35;;;;;;;;;;4990780;28;20034;-58
2022/06/08 05:46:01;;;;;;;1.73;1.27;;;;;;;;;;4989355;28;20046;-61
2022/06/08 05:48:27;;;;;;;1.48;1.23;;;;;;;;;;5002627;28;20042;-61
2022/06/08 05:50:54;;;;;;;1.65;1.17;;;;;;;;;;5007721;28;20050;-58
2022/06/08 05:53:20;;;;;;;2.20;1.33;;;;;;;;;;4999336;28;20085;-62
2022/06/08 05:55:46;;;;;;;1.52;1.20;;;;;;;;;;5002509;28;20077;-63
2022/06/08 05:58:15;;;;;;;1.92;1.48;;;;;;;;;;5010430;28;20129;-64
2022/06/08 06:00:42;;;;;;;2.00;1.40;;;;;;;;;;5009699;28;20034;-58
2022/06/08 06:03:08;;;;;;;1.30;1.20;;;;;;;;;;5011299;28;20100;-60
2022/06/08 06:05:36;;;;;;;2.13;1.45;;;;;;;;;;4980908;28;20063;-62
2022/06/08 06:11:16;;;;;;;1.98;1.45;;;;;;;;;;4965120;28;20070;-58
2022/06/08 06:13:43;;;;;;;2.08;1.35;;;;;;;;;;4976741;28;20120;-58
2022/06/08 06:19:13;;;;;;;2.38;1.25;;;;;;;;;;5005320;28;20199;-62
2022/06/08 06:21:39;;;;;;;;;;;;;;;;;;5013877;28;20053;-58
2022/06/08 06:24:06;;;;;;;1.92;1.30;;;;;;;;;;4995059;28;19922;-57
2022/06/08 06:26:32;;;;;;;1.30;0.98;;;;;;;;;;5012308;28;20057;-60
2022/06/08 06:28:59;;;;;;;1.80;1.30;;;;;;;;;;5001916;28;20550;-62
2022/06/08 06:31:45;;;;;;;1.73;1.20;;;;;;;;;;5003388;28;20483;-62
2022/06/08 06:34:12;;;;;;;1.65;1.20;;;;;;;;;;4983918;28;20060;-59
2022/06/08 06:36:38;;;;;;;2.03;1.38;;;;;;;;;;5001107;28;20434;-59
2022/06/08 06:39:26;;;;;;;2.03;1.48;;;;;;;;;;5011780;28;20042;-64
2022/06/08 06:41:51;;;;;;;2.17;1.20;;;;;;;;;;5010964;28;20052;-61
2022/06/08 06:44:17;;;;;;;1.90;1.30;;;;;;;;;;5012987;28;20054;-63
2022/06/08 06:46:43;;;;;;;1.92;1.30;;;;;;;;;;5006699;28;20049;-63
2022/06/08 06:49:10;;;;;;;2.75;1.45;;;;;;;;;;4998661;28;20054;-61
2022/06/08 06:51:36;;;;;;;1.88;1.27;;;;;;;;;;4998197;28;20042;-62
2022/06/08 06:54:02;;;;;;;;;;;;;;;;;;4990848;28;20050;-64
2022/06/08 06:56:28;;;;;;;1.30;1.17;;;;;;;;;;4993951;28;19921;-59
2022/06/08 06:58:54;;;;;;;;;;;;;;;;;;4997483;28;20042;-61
2022/06/08 07:01:20;;;;;;;1.73;1.23;;;;;;;;;;5005119;28;19922;-59
2022/06/08 07:04:07;;;;;;;;;;;;;;;;;;4995365;28;20053;-66
2022/06/08 07:06:33;;;;;;;1.58;1.42;;;;;;;;;;4997295;28;19921;-58
2022/06/08 07:08:59;;;;;;;1.10;1.00;;;;;;;;;;5004050;28;20034;-59
2022/06/08 07:11:40;;;;;;;5.15;2.58;;;;;;;;;;4989424;28;20665;-57
2022/06/08 07:14:08;;;;;;;9.23;4.10;;;;;;;;;;5002110;28;20084;-63
2022/06/08 07:16:47;;;;;;;;;;;;;;;;;;;;;
2022/06/08 07:19:23;;;;;;;11.25;4.47;;;;;;;;;;5004132;28;20049;-58
2022/06/08 07:22:14;;;;;;;10.25;3.92;;;;;;;;;;4994691;28;20116;-66
2022/06/08 07:25:12;;;;;;;8.80;4.25;;;;;;;;;;5011035;28;20505;-65
2022/06/08 07:27:39;;;;;;;11.05;5.45;;;;;;;;;;4994382;28;20065;-57
2022/06/08 07:30:07;;;;;;;7.38;3.60;;;;;;;;;;5011181;28;20483;-59
2022/06/08 07:32:34;;;;;;;9.18;4.30;;;;;;;;;;5012162;28;20081;-63
2022/06/08 07:35:02;;;;;;;8.50;4.50;;;;;;;;;;5009475;28;20471;-55
2022/06/08 07:37:28;;;;;;;8.80;4.40;;;;;;;;;;4975934;28;20382;-56
2022/06/08 07:39:54;;;;;;;8.75;3.72;;;;;;;;;;5002218;28;20046;-57
2022/06/08 07:42:21;;;;;;;8.18;3.53;;;;;;;;;;5010834;28;20476;-55
2022/06/08 07:44:47;;;;;;;10.57;4.55;;;;;;;;;;5011728;28;20090;-56
2022/06/08 07:47:13;;;;;;;10.05;4.35;;;;;;;;;;5011165;28;20046;-54
2022/06/08 07:49:41;;;;;;;7.20;3.47;;;;;;;;;;5011040;28;20034;-55
2022/06/08 07:52:08;;;;;;;11.52;3.90;;;;;;;;;;5005589;28;20053;-56
2022/06/08 07:54:34;;;;;;;8.00;3.25;;;;;;;;;;5006064;28;20117;-55
2022/06/08 07:57:01;;;;;;;;;;;;;;;;;;4998471;28;20039;-55
2022/06/08 07:59:28;;;;;;;7.97;2.88;;;;;;;;;;5009782;28;20012;-55
2022/06/08 08:01:54;;;;;;;5.50;2.75;;;;;;;;;;5010810;28;20566;-56
2022/06/08 08:04:21;;;;;;;6.70;2.70;;;;;;;;;;4980086;28;20050;-54
2022/06/08 08:06:47;;;;;;;6.00;2.80;;;;;;;;;;5011376;28;20482;-52
2022/06/08 08:09:17;;;;;;;7.53;3.42;;;;;;;;;;5009884;28;20053;-57
2022/06/08 08:11:47;;;;;;;6.90;3.10;;;;;;;;;;5006808;28;20063;-57
2022/06/08 08:14:14;;;;;;;5.47;2.75;;;;;;;;;;5010262;28;20111;-56
2022/06/08 08:16:40;;;;;;;6.07;2.58;;;;;;;;;;5010774;28;20368;-57
2022/06/08 08:19:07;;;;;;;8.93;3.58;;;;;;;;;;5002064;28;20049;-57
2022/06/08 08:21:33;;;;;;;135.38;13.02;;;;;;;;;;4996083;28;20041;-56
2022/06/08 08:24:00;;;;;;;37.15;5.93;;;;;;;;;;5009834;28;20483;-57
2022/06/08 08:26:26;;;;;;;44.50;4.82;;;;;;;;;;4994398;28;20121;-56
2022/06/08 08:28:53;;;;;;;63.10;7.68;;;;;;;;;;4991517;28;20043;-53
2022/06/08 08:31:19;;;;;;;91.15;8.65;;;;;;;;;;4973751;28;20068;-53
2022/06/08 08:33:45;;;;;;;14.68;2.65;;;;;;;;;;4993395;28;20120;-57
2022/06/08 08:36:11;;;;;;;;;;;;;;;;;;5010912;28;20523;-56
2022/06/08 08:38:38;;;;;;;22.60;3.30;;;;;;;;;;4993635;28;19928;-57
2022/06/08 08:42:20;;;;;;;15.45;3.10;;;;;;;;;;5008138;28;20625;-57
2022/06/08 08:43:50;;;;;;;21.48;2.58;;;;;;;;;;5006240;28;20046;-56
2022/06/08 08:46:29;;;;;;;11.45;1.92;;;;;;;;;;5010581;28;20064;-58
2022/06/08 08:49:00;;;;;;;13.23;2.63;;;;;;;;;;5010908;28;20045;-56
2022/06/08 08:51:32;;;;;;;12.90;2.53;;;;;;;;;;5009632;28;20495;-57
2022/06/08 08:54:04;;;;;;;14.88;2.20;;;;;;;;;;5010198;28;20055;-56
2022/06/08 08:56:39;;;;;;;8.07;2.00;;;;;;;;;;5008468;28;20054;-56
2022/06/08 08:59:16;;;;;;;6.93;2.25;;;;;;;;;;4997007;28;20038;-57
2022/06/08 09:01:42;;;;;;;;;;;;;;;;;;5001001;28;20057;-57
2022/06/08 09:04:28;;;;;;;8.32;1.73;;;;;;;;;;5003014;28;20518;-56
2022/06/08 09:06:54;;;;;;;14.35;2.42;;;;;;;;;;5005760;28;20041;-55
2022/06/08 09:09:23;;;;;;;6.38;1.67;;;;;;;;;;5007567;28;20876;-57
2022/06/08 09:11:49;;;;;;;4.53;1.58;;;;;;;;;;4995579;28;20078;-56
2022/06/08 09:14:19;;;;;;;8.15;2.15;;;;;;;;;;4988493;28;20038;-57
2022/06/08 09:16:47;;;;;;;5.82;1.60;;;;;;;;;;4991004;28;20523;-57
2022/06/08 09:19:25;;;;;;;7.90;1.42;;;;;;;;;;4996824;28;20073;-57
2022/06/08 09:21:59;;;;;;;7.55;1.70;;;;;;;;;;4998411;28;20547;-57
2022/06/08 09:24:26;;;;;;;11.20;1.88;;;;;;;;;;5005283;28;20054;-57
2022/06/08 09:26:55;;;;;;;10.35;2.03;;;;;;;;;;4991319;28;20077;-55
2022/06/08 09:29:29;;;;;;;9.50;1.63;;;;;;;;;;4998153;28;20101;-56
2022/06/08 09:31:55;;;;;;;8.00;1.58;;;;;;;;;;5000399;28;20046;-56
2022/06/08 09:34:23;;;;;;;8.85;2.15;;;;;;;;;;4995437;28;20069;-57
2022/06/08 09:37:08;;;;;;;5.45;1.70;;;;;;;;;;5004363;28;20073;-54
2022/06/08 09:39:35;;;;;;;3.33;1.25;;;;;;;;;;5013085;28;20061;-57
2022/06/08 09:42:05;;;;;;;9.02;1.50;;;;;;;;;;5012930;28;20053;-56
2022/06/08 09:44:38;;;;;;;6.70;1.40;;;;;;;;;;5013970;28;20085;-57
2022/06/08 09:52:52;;;;;;;6.63;1.40;;;;;;;;;;5010068;28;20048;-56
2022/06/08 09:55:38;;;;;;;5.25;1.75;;;;;;;;;;5009577;28;20041;-56
2022/06/08 09:58:10;;;;;;;7.78;1.45;;;;;;;;;;5000597;28;20039;-58
2022/06/08 10:00:55;;;;;;;5.93;1.30;;;;;;;;;;5013515;28;20045;-56
2022/06/08 10:03:37;;;;;;;7.20;1.52;;;;;;;;;;4992865;28;20484;-54
2022/06/08 10:06:23;;;;;;;6.53;1.80;;;;;;;;;;5013054;28;20491;-56
2022/06/08 10:09:01;;;;;;;4.05;1.73;;;;;;;;;;5009746;28;20038;-58
2022/06/08 10:11:35;;;;;;;6.82;2.13;;;;;;;;;;5002234;28;20128;-56
2022/06/08 10:14:21;;;;;;;5.38;1.58;;;;;;;;;;5013638;28;20428;-56
2022/06/08 10:17:23;;;;;;;4.85;1.40;;;;;;;;;;4948348;28;20054;-57
2022/06/08 10:19:55;;;;;;;5.32;1.90;;;;;;;;;;4931339;29;20046;-56
2022/06/08 10:22:23;;;;;;;2.30;1.17;;;;;;;;;;4980768;28;20060;-55
2022/06/08 10:24:55;;;;;;;6.63;1.75;;;;;;;;;;5007746;28;20033;-55
2022/06/08 10:27:25;;;;;;;5.43;2.25;;;;;;;;;;5004274;28;20122;-56
2022/06/08 10:29:54;;;;;;;4.97;1.60;;;;;;;;;;4977492;28;20046;-55
2022/06/08 10:32:39;;;;;;;3.58;1.50;;;;;;;;;;4998137;28;20137;-56
2022/06/08 10:35:24;;;;;;;7.25;2.08;;;;;;;;;;4994591;28;20046;-55
2022/06/08 10:37:50;;;;;;;4.00;1.40;;;;;;;;;;4992892;28;20113;-57
2022/06/08 10:40:19;;;;;;;3.65;1.77;;;;;;;;;;5002696;28;20121;-56
2022/06/08 10:42:48;;;;;;;3.70;1.85;;;;;;;;;;4995641;28;20050;-56
2022/06/08 10:45:23;;;;;;;2.72;1.50;;;;;;;;;;5011047;28;20545;-56
2022/06/08 10:48:22;;;;;;;5.57;1.65;;;;;;;;;;5011885;28;20033;-57
2022/06/08 10:50:49;;;;;;;3.92;1.63;;;;;;;;;;5011687;28;20520;-52
2022/06/08 10:56:24;;;;;;;2.33;1.45;;;;;;;;;;5009502;28;20475;-53
2022/06/08 10:58:58;;;;;;;2.72;1.75;;;;;;;;;;5005137;28;20041;-56
2022/06/08 11:01:33;;;;;;;2.30;1.45;;;;;;;;;;4974882;28;20097;-53
2022/06/08 11:04:02;;;;;;;3.80;1.63;;;;;;;;;;4988225;28;20443;-54
2022/06/08 11:06:46;;;;;;;3.58;1.45;;;;;;;;;;4980414;28;20125;-54
2022/06/08 11:09:21;;;;;;;2.40;1.35;;;;;;;;;;5010589;28;20064;-56
2022/06/08 11:11:49;;;;;;;3.17;1.17;;;;;;;;;;5010580;28;20057;-54
2022/06/08 11:14:27;;;;;;;2.22;1.23;;;;;;;;;;5005219;28;20528;-56
2022/06/08 11:16:53;;;;;;;1.58;1.10;;;;;;;;;;5011825;28;20491;-51
2022/06/08 11:19:19;;;;;;;3.65;1.60;;;;;;;;;;5010397;28;20046;-51
2022/06/08 11:21:51;;;;;;;6.20;1.27;;;;;;;;;;5011344;28;20053;-54
2022/06/08 11:24:26;;;;;;;3.63;1.65;;;;;;;;;;5009770;28;20041;-56
2022/06/08 11:27:01;;;;;;;2.40;1.30;;;;;;;;;;5010566;28;20076;-56
2022/06/08 11:29:30;;;;;;;3.70;1.60;;;;;;;;;;5010857;28;20498;-56
2022/06/08 11:31:57;;;;;;;4.68;1.85;;;;;;;;;;5011442;28;20120;-53
2022/06/08 11:34:42;;;;;;;3.95;1.45;;;;;;;;;;5010869;28;20056;-56
2022/06/08 11:37:34;;;;;;;1.73;1.15;;;;;;;;;;5011187;28;20045;-55
2022/06/08 11:40:04;;;;;;;2.35;1.42;;;;;;;;;;4980032;28;20054;-48
2022/06/08 11:42:30;;;;;;;4.60;1.65;;;;;;;;;;5007486;28;20390;-49
2022/06/08 11:44:58;;;;;;;5.72;1.90;;;;;;;;;;5011096;28;20052;-49
2022/06/08 11:47:27;;;;;;;3.92;1.70;;;;;;;;;;5010326;28;20046;-49
2022/06/08 11:49:55;;;;;;;2.78;1.88;;;;;;;;;;4993677;28;20065;-51
2022/06/08 11:52:26;;;;;;;4.97;1.80;;;;;;;;;;5005597;28;20081;-50
2022/06/08 11:55:04;;;;;;;3.08;2.10;;;;;;;;;;5008468;28;20034;-51
2022/06/08 11:57:31;;;;;;;174.45;17.50;;;;;;;;;;5009752;28;20100;-51
2022/06/08 11:59:58;;;;;;;2.63;1.67;;;;;;;;;;5009799;28;20077;-53
2022/06/08 12:02:35;;;;;;;5.57;1.90;;;;;;;;;;5008291;28;20129;-53
2022/06/08 12:05:01;;;;;;;4.50;1.73;;;;;;;;;;4996955;28;20056;-53
2022/06/08 12:07:27;;;;;;;4.90;1.85;;;;;;;;;;5010195;28;20046;-54
2022/06/08 12:09:53;;;;;;;;;;;;;;;;;;5009970;28;20376;-53
2022/06/08 12:12:21;;;;;;;4.43;1.77;;;;;;;;;;5009422;28;19918;-52
2022/06/08 12:14:47;;;;;;;3.00;1.58;;;;;;;;;;5010705;28;20101;-55
2022/06/08 12:17:14;;;;;;;3.03;1.77;;;;;;;;;;4997170;28;20049;-52
2022/06/08 12:19:53;;;;;;;4.25;1.55;;;;;;;;;;5010106;28;20072;-53
2022/06/08 12:22:25;;;;;;;4.20;2.22;;;;;;;;;;4992234;28;20483;-55
2022/06/08 12:25:09;;;;;;;2.35;1.40;;;;;;;;;;5007651;28;20046;-52
2022/06/08 12:27:59;;;;;;;1.95;1.50;;;;;;;;;;4998211;28;20124;-56
2022/06/08 12:30:27;;;;;;;3.47;1.30;;;;;;;;;;4994124;28;20042;-54
2022/06/08 12:32:55;;;;;;;1.58;1.23;;;;;;;;;;5009591;28;20509;-55
2022/06/08 12:35:22;;;;;;;4.25;1.48;;;;;;;;;;5000816;28;20042;-54
2022/06/08 12:37:49;;;;;;;3.00;1.52;;;;;;;;;;5009923;28;20398;-55
2022/06/08 12:40:18;;;;;;;1.70;1.40;;;;;;;;;;5008669;28;20081;-56
2022/06/08 12:42:53;;;;;;;3.88;1.80;;;;;;;;;;5009140;28;20042;-49
2022/06/08 12:45:36;;;;;;;2.25;1.40;;;;;;;;;;5009487;28;20054;-56
2022/06/08 12:48:22;;;;;;;1.63;1.40;;;;;;;;;;5010621;28;20046;-51
2022/06/08 12:50:48;;;;;;;2.67;1.40;;;;;;;;;;5009792;28;20038;-48
2022/06/08 12:53:16;;;;;;;3.58;1.40;;;;;;;;;;4993213;28;20049;-50
2022/06/08 12:55:42;;;;;;;3.15;1.35;;;;;;;;;;4988745;28;20740;-49
2022/06/08 12:58:09;;;;;;;3.65;1.40;;;;;;;;;;4990750;28;20539;-49
2022/06/08 13:00:36;;;;;;;1.98;1.30;;;;;;;;;;4989870;28;20420;-48
2022/06/08 13:03:10;;;;;;;3.80;1.50;;;;;;;;;;4990888;28;20146;-49
2022/06/08 13:05:36;;;;;;;1.50;1.13;;;;;;;;;;4990081;28;20038;-48
2022/06/08 13:08:03;;;;;;;1.92;1.35;;;;;;;;;;5003214;28;20033;-49
2022/06/08 13:10:31;;;;;;;1.33;1.23;;;;;;;;;;5008482;28;20105;-48
2022/06/08 13:13:03;;;;;;;1.42;1.30;;;;;;;;;;5013471;28;20080;-49
2022/06/08 13:15:37;;;;;;;2.15;1.38;;;;;;;;;;4996431;28;20129;-50
2022/06/08 13:18:03;;;;;;;3.17;1.58;;;;;;;;;;5014298;28;20042;-50
2022/06/08 13:20:31;;;;;;;2.40;1.40;;;;;;;;;;5013471;28;20045;-48
2022/06/08 13:22:57;;;;;;;1.55;1.20;;;;;;;;;;5000902;28;20051;-49
2022/06/08 13:25:25;;;;;;;3.75;1.25;;;;;;;;;;4999701;28;20050;-56
2022/06/08 13:27:53;;;;;;;2.45;1.20;;;;;;;;;;5002941;28;20057;-49
2022/06/08 13:30:21;;;;;;;2.13;1.20;;;;;;;;;;4998249;28;20500;-49
2022/06/08 13:32:47;;;;;;;2.10;1.50;;;;;;;;;;4998904;28;20046;-48
2022/06/08 13:35:14;;;;;;;1.85;1.20;;;;;;;;;;5003707;28;20105;-48
2022/06/08 13:37:41;;;;;;;1.10;1.00;;;;;;;;;;4999009;28;20128;-51
2022/06/08 13:40:34;;;;;;;2.40;1.30;;;;;;;;;;5002960;28;20470;-48
2022/06/08 13:43:00;;;;;;;1.45;1.35;;;;;;;;;;4993388;28;20057;-49
2022/06/08 13:45:28;;;;;;;1.85;1.20;;;;;;;;;;4985900;28;20052;-56
2022/06/08 13:47:56;;;;;;;1.50;1.20;;;;;;;;;;5013206;28;20040;-48
2022/06/08 13:50:25;;;;;;;1.48;1.10;;;;;;;;;;5007070;28;20038;-49
2022/06/08 13:52:53;;;;;;;2.78;1.30;;;;;;;;;;5012138;28;20495;-50
2022/06/08 13:55:30;;;;;;;1.50;1.40;;;;;;;;;;4994526;28;20042;-51
2022/06/08 13:57:57;;;;;;;4.18;1.45;;;;;;;;;;5012908;28;20475;-48
2022/06/08 14:00:25;;;;;;;4.95;1.27;;;;;;;;;;5008482;28;20045;-48
2022/06/08 14:02:53;;;;;;;3.05;1.45;;;;;;;;;;5003051;28;20060;-50
2022/06/08 14:12:59;;;;;;;1.30;1.20;;;;;;;;;;4994195;28;20042;-49
2022/06/08 14:13:41;;;;;;;2.15;1.00;;;;;;;;;;5007410;28;20057;-49
2022/06/08 14:16:07;;;;;;;1.20;1.10;;;;;;;;;;5013333;28;20382;-48
2022/06/08 14:18:40;;;;;;;1.25;1.15;;;;;;;;;;5007474;28;20535;-49
2022/06/08 14:21:07;;;;;;;1.20;1.10;;;;;;;;;;4993200;28;20042;-52
2022/06/08 14:23:34;;;;;;;1.73;1.02;;;;;;;;;;4974785;28;20042;-48
2022/06/08 14:26:01;;;;;;;1.20;1.10;;;;;;;;;;5004928;28;20481;-49
2022/06/08 14:28:27;;;;;;;1.52;1.13;;;;;;;;;;5000680;28;20058;-49
2022/06/08 14:30:54;;;;;;;1.23;0.95;;;;;;;;;;5012343;28;20487;-48
2022/06/08 14:33:20;;;;;;;1.05;1.00;;;;;;;;;;5006816;28;20047;-50
2022/06/08 14:35:48;;;;;;;;;;;;;;;;;;4992784;28;20128;-49
2022/06/08 14:38:16;;;;;;;1.30;1.10;;;;;;;;;;4992936;28;20375;-49
2022/06/08 14:40:42;;;;;;;2.20;1.00;;;;;;;;;;4993688;28;20483;-48
2022/06/08 14:43:09;;;;;;;1.63;1.00;;;;;;;;;;5012458;28;20586;-52
2022/06/08 14:45:36;;;;;;;1.23;1.10;;;;;;;;;;5009546;28;20041;-52
2022/06/08 14:48:03;;;;;;;1.90;1.00;;;;;;;;;;5010947;28;20173;-49
2022/06/08 14:50:31;;;;;;;2.28;1.20;;;;;;;;;;5011603;28;20046;-51
2022/06/08 14:52:58;;;;;;;1.02;0.90;;;;;;;;;;5010552;28;20064;-65
2022/06/08 14:58:13;;;;;;;2.80;1.20;;;;;;;;;;4992961;28;20057;-51
2022/06/08 15:00:40;;;;;;;1.80;1.20;;;;;;;;;;4992133;28;20377;-48
2022/06/08 15:03:08;;;;;;;1.55;1.15;;;;;;;;;;4993088;28;20046;-51
2022/06/08 15:05:35;;;;;;;1.05;0.93;;;;;;;;;;4997452;28;20042;-56
2022/06/08 15:08:01;;;;;;;1.48;1.00;;;;;;;;;;5003676;28;20045;-51
2022/06/08 15:10:28;;;;;;;1.02;0.93;;;;;;;;;;5009259;28;20414;-53
2022/06/08 15:12:58;;;;;;;1.73;1.20;;;;;;;;;;4999306;28;20141;-49
2022/06/08 15:15:26;;;;;;;1.10;1.00;;;;;;;;;;5003491;28;20046;-54
2022/06/08 15:17:54;;;;;;;0.90;0.90;;;;;;;;;;5007554;28;20045;-48
2022/06/08 15:20:22;;;;;;;1.10;0.98;;;;;;;;;;5007730;28;20052;-51
2022/06/08 15:22:50;;;;;;;1.10;0.98;;;;;;;;;;5003761;28;20048;-48
2022/06/08 15:25:18;;;;;;;1.15;0.80;;;;;;;;;;4997435;28;20046;-54
2022/06/08 15:27:46;;;;;;;1.50;1.23;;;;;;;;;;4996402;28;20050;-50
2022/06/08 15:30:14;;;;;;;1.35;1.00;;;;;;;;;;5003555;28;20107;-48
2022/06/08 15:32:40;;;;;;;0.90;0.90;;;;;;;;;;4998272;28;20042;-49
2022/06/08 15:35:07;;;;;;;2.25;1.08;;;;;;;;;;4998522;28;20378;-49